createdAt,value
2023-02-17T00:01:39.010Z,99918.97
2023-02-17T00:04:07.397Z,99919.44
2023-02-17T00:06:35.703Z,99927.78
2023-02-17T00:09:04.720Z,99928.56
2023-02-17T00:11:33.147Z,99938.44
2023-02-17T00:14:01.858Z,99941.53
2023-02-17T00:16:30.513Z,99943.84
2023-02-17T00:19:01.675Z,99953.44
2023-02-17T00:21:32.879Z,99949.41
2023-02-17T00:24:01.565Z,99949.25
2023-02-17T00:26:30.155Z,99948.03
2023-02-17T00:29:00.191Z,99956.69
2023-02-17T00:31:28.527Z,99960.09
2023-02-17T00:33:57.817Z,99963.97
2023-02-17T00:36:27.190Z,99974.94
2023-02-17T00:38:57.933Z,99977.56
2023-02-17T00:41:28.391Z,99976.19
2023-02-17T00:43:57.039Z,99977.56
2023-02-17T00:46:26.160Z,99974.63
2023-02-17T00:48:55.267Z,99976.31
2023-02-17T00:51:24.028Z,99984.53
2023-02-17T00:53:52.909Z,99991.97
2023-02-17T00:56:21.229Z,99997.22
2023-02-17T00:58:49.608Z,99996.59
2023-02-17T01:01:17.965Z,99993.19
2023-02-17T01:03:46.392Z,99996.63
2023-02-17T01:06:23.436Z,100005.41
2023-02-17T01:08:51.846Z,100004.50
2023-02-17T01:11:22.396Z,100003.38
2023-02-17T01:13:51.148Z,100006.31
2023-02-17T01:16:23.631Z,100014.06
2023-02-17T01:18:52.298Z,100017.75
2023-02-17T01:21:25.565Z,100027.81
2023-02-17T01:23:56.407Z,100022.38
2023-02-17T01:26:27.670Z,100024.03
2023-02-17T01:28:56.942Z,100030.84
2023-02-17T01:31:28.193Z,100033.78
2023-02-17T01:33:59.434Z,100032.84
2023-02-17T01:36:28.045Z,100038.88
2023-02-17T01:38:57.176Z,100043.81
2023-02-17T01:41:28.518Z,100046.91
2023-02-17T01:44:05.996Z,100037.59
2023-02-17T01:46:36.255Z,100045.63
2023-02-17T01:49:17.390Z,100043.13
2023-02-17T01:51:48.559Z,100049.78
2023-02-17T01:54:28.264Z,100055.47
2023-02-17T01:57:00.866Z,100054.53
2023-02-17T01:59:31.368Z,100047.56
2023-02-17T02:02:04.084Z,100052.50
2023-02-17T02:04:37.451Z,100048.09
2023-02-17T02:07:11.617Z,100043.13
2023-02-17T02:09:52.012Z,100054.41
2023-02-17T02:12:28.230Z,100046.34
2023-02-17T02:15:01.617Z,100051.56
2023-02-17T02:17:54.255Z,100057.59
2023-02-17T02:20:40.500Z,100056.75
2023-02-17T02:23:35.796Z,100059.03
2023-02-17T02:26:24.800Z,100069.16
2023-02-17T02:29:18.556Z,100077.16
2023-02-17T02:31:46.850Z,100073.25
2023-02-17T02:34:35.541Z,100070.09
2023-02-17T02:37:08.937Z,100078.19
2023-02-17T02:39:43.958Z,100077.50
2023-02-17T02:42:17.390Z,100082.31
2023-02-17T02:44:45.664Z,100089.97
2023-02-17T02:47:44.648Z,100082.53
2023-02-17T02:50:35.041Z,100084.94
2023-02-17T02:53:29.958Z,100076.72
2023-02-17T02:56:14.979Z,100080.53
2023-02-17T02:58:55.988Z,100081.66
2023-02-17T03:01:36.454Z,100075.38
2023-02-17T03:04:14.648Z,100075.72
2023-02-17T03:06:53.982Z,100085.56
2023-02-17T03:09:29.725Z,100088.78
2023-02-17T03:11:59.838Z,100081.03
2023-02-17T03:14:29.804Z,100089.59
2023-02-17T03:17:01.181Z,100078.56
2023-02-17T03:19:30.035Z,100075.91
2023-02-17T03:22:26.305Z,100060.00
2023-02-17T03:24:54.818Z,100057.78
2023-02-17T03:27:23.135Z,100053.81
2023-02-17T03:29:51.427Z,100054.34
2023-02-17T03:32:19.806Z,100049.78
2023-02-17T03:34:48.108Z,100052.38
2023-02-17T03:37:16.437Z,100046.28
2023-02-17T03:39:44.786Z,100044.50
2023-02-17T03:42:13.096Z,100041.50
2023-02-17T03:44:41.417Z,100038.97
2023-02-17T03:47:09.736Z,100028.31
2023-02-17T03:49:38.019Z,100025.50
2023-02-17T03:52:06.752Z,100034.19
2023-02-17T03:54:35.135Z,100027.41
2023-02-17T03:57:03.629Z,100022.59
2023-02-17T04:00:07.216Z,100015.25
2023-02-17T04:02:35.527Z,100005.19
2023-02-17T04:05:04.025Z,100003.97
2023-02-17T04:07:32.366Z,100003.28
2023-02-17T04:10:00.741Z,99994.88
2023-02-17T04:12:29.055Z,99989.56
2023-02-17T04:14:57.369Z,99996.28
2023-02-17T04:17:25.706Z,99995.56
2023-02-17T04:19:54.015Z,99989.19
2023-02-17T04:22:22.369Z,99988.19
2023-02-17T04:24:50.684Z,99981.06
2023-02-17T04:27:18.989Z,99972.66
2023-02-17T04:29:47.300Z,99973.94
2023-02-17T04:32:15.914Z,99976.28
2023-02-17T04:34:44.197Z,99968.91
2023-02-17T04:37:12.501Z,99959.22
2023-02-17T04:39:41.086Z,99957.94
2023-02-17T04:42:09.463Z,99950.84
2023-02-17T04:44:37.744Z,99948.31
2023-02-17T04:47:06.080Z,99950.84
2023-02-17T04:49:34.453Z,99937.56
2023-02-17T04:52:02.939Z,99930.19
2023-02-17T04:54:31.209Z,99928.41
2023-02-17T04:56:59.507Z,99921.00
2023-02-17T04:59:27.821Z,99907.72
2023-02-17T05:01:56.110Z,99900.31
2023-02-17T05:04:24.519Z,99907.22
2023-02-17T05:06:52.882Z,99897.50
2023-02-17T05:09:21.655Z,99889.06
2023-02-17T05:11:49.960Z,99884.72
2023-02-17T05:14:18.422Z,99877.81
2023-02-17T05:16:46.886Z,99866.06
2023-02-17T05:19:15.169Z,99860.69
2023-02-17T05:21:43.491Z,99860.16
2023-02-17T05:24:11.869Z,99856.34
2023-02-17T05:26:40.240Z,99847.91
2023-02-17T05:29:08.538Z,99846.59
2023-02-17T05:31:36.981Z,99836.84
2023-02-17T05:34:05.516Z,99828.88
2023-02-17T05:36:33.819Z,99830.91
2023-02-17T05:39:02.120Z,99825.53
2023-02-17T05:41:30.687Z,99821.16
2023-02-17T05:43:59.061Z,99809.09
2023-02-17T05:46:27.397Z,99798.34
2023-02-17T05:48:55.921Z,99800.34
2023-02-17T05:51:24.218Z,99791.13
2023-02-17T05:53:52.561Z,99786.56
2023-02-17T05:56:20.876Z,99779.63
2023-02-17T05:58:49.150Z,99771.97
2023-02-17T06:01:17.632Z,99772.19
2023-02-17T06:03:45.987Z,99771.97
2023-02-17T06:06:14.556Z,99763.28
2023-02-17T06:08:42.893Z,99761.22
2023-02-17T06:11:11.207Z,99755.84
2023-02-17T06:13:39.585Z,99746.63
2023-02-17T06:16:08.378Z,99752.00
2023-02-17T06:18:36.902Z,99740.19
2023-02-17T06:21:05.447Z,99736.59
2023-02-17T06:23:33.740Z,99732.22
2023-02-17T06:26:02.067Z,99719.91
2023-02-17T06:28:30.417Z,99720.41
2023-02-17T06:30:58.705Z,99707.31
2023-02-17T06:33:27.168Z,99698.59
2023-02-17T06:35:55.488Z,99684.28
2023-02-17T06:38:23.849Z,99680.94
2023-02-17T06:40:52.199Z,99675.06
2023-02-17T06:43:20.512Z,99667.91
2023-02-17T06:45:48.925Z,99660.50
2023-02-17T06:48:17.258Z,99660.69
2023-02-17T06:50:45.579Z,99655.81
2023-02-17T06:53:13.871Z,99648.19
2023-02-17T06:55:42.161Z,99634.34
2023-02-17T06:58:10.449Z,99636.63
2023-02-17T07:00:38.757Z,99626.91
2023-02-17T07:03:08.173Z,99617.91
2023-02-17T07:05:38.060Z,99621.72
2023-02-17T07:08:06.658Z,99622.03
2023-02-17T07:10:35.113Z,99607.72
2023-02-17T07:13:03.463Z,99612.34
2023-02-17T07:15:31.807Z,99614.63
2023-02-17T07:18:00.191Z,99606.19
2023-02-17T07:20:28.533Z,99603.06
2023-02-17T07:22:56.865Z,99594.31
2023-02-17T07:25:25.173Z,99591.47
2023-02-17T07:27:53.793Z,99588.59
2023-02-17T07:30:22.280Z,99581.66
2023-02-17T07:32:50.630Z,99575.75
2023-02-17T07:35:18.958Z,99580.63
2023-02-17T07:37:47.223Z,99571.41
2023-02-17T07:40:15.840Z,99561.13
2023-02-17T07:42:44.227Z,99563.72
2023-02-17T07:45:12.548Z,99563.72
2023-02-17T07:47:40.903Z,99558.84
2023-02-17T07:50:10.437Z,99552.97
2023-02-17T07:55:23.117Z,99543.75
2023-02-17T07:57:51.497Z,99535.31
2023-02-17T08:00:20.040Z,99528.22
2023-02-17T08:02:48.439Z,99525.41
2023-02-17T08:05:16.795Z,99522.81
2023-02-17T08:07:45.081Z,99524.09
2023-02-17T08:10:32.909Z,99520.31
2023-02-17T08:13:19.393Z,99513.16
2023-02-17T08:15:47.767Z,99505.47
2023-02-17T08:18:16.127Z,99496.47
2023-02-17T08:20:44.591Z,99499.00
2023-02-17T08:23:13.409Z,99490.53
2023-02-17T08:25:41.714Z,99494.13
2023-02-17T08:28:12.620Z,99488.78
2023-02-17T08:30:41.371Z,99485.22
2023-02-17T08:33:09.769Z,99492.66
2023-02-17T08:35:38.154Z,99484.97
2023-02-17T08:38:06.492Z,99479.63
2023-02-17T08:40:34.786Z,99482.97
2023-02-17T08:43:03.650Z,99482.50
2023-02-17T08:45:32.109Z,99495.06
2023-02-17T08:48:00.752Z,99486.16
2023-02-17T08:50:29.110Z,99493.06
2023-02-17T08:52:57.477Z,99495.66
2023-02-17T08:55:25.846Z,99492.09
2023-02-17T08:57:54.919Z,99502.34
2023-02-17T09:00:23.436Z,99503.13
2023-02-17T09:02:51.735Z,99495.19
2023-02-17T09:05:20.272Z,99491.09
2023-02-17T09:07:48.590Z,99492.38
2023-02-17T09:10:16.968Z,99492.69
2023-02-17T09:12:45.342Z,99486.81
2023-02-17T09:15:13.663Z,99491.72
2023-02-17T09:17:42.678Z,99490.47
2023-02-17T09:20:24.079Z,99487.94
2023-02-17T09:22:53.454Z,99492.13
2023-02-17T09:25:21.834Z,99494.16
2023-02-17T09:27:50.360Z,99496.28
2023-02-17T09:30:18.855Z,99499.84
2023-02-17T09:32:47.309Z,99498.31
2023-02-17T09:35:18.620Z,99494.22
2023-02-17T09:37:47.552Z,99495.50
2023-02-17T09:40:41.359Z,99499.63
2023-02-17T09:43:33.543Z,99498.09
2023-02-17T09:46:10.382Z,99499.34
2023-02-17T09:48:40.908Z,99496.31
2023-02-17T09:51:32.200Z,99496.59
2023-02-17T09:54:20.343Z,99500.69
2023-02-17T09:56:52.750Z,99503.03
2023-02-17T09:59:46.133Z,99505.91
2023-02-17T10:02:39.957Z,99496.75
2023-02-17T10:05:12.750Z,99499.09
2023-02-17T10:07:53.535Z,99497.81
2023-02-17T10:10:32.370Z,99503.22
2023-02-17T10:13:04.529Z,99500.44
2023-02-17T10:15:40.039Z,99510.44
2023-02-17T10:18:20.198Z,99505.09
2023-02-17T10:20:59.435Z,99510.47
2023-02-17T10:23:30.050Z,99506.41
2023-02-17T10:26:35.210Z,99505.38
2023-02-17T10:29:08.775Z,99515.41
2023-02-17T10:31:49.139Z,99505.97
2023-02-17T10:34:42.689Z,99517.25
2023-02-17T10:37:16.411Z,99511.66
2023-02-17T10:39:53.284Z,99513.75
2023-02-17T10:42:27.257Z,99517.09
2023-02-17T10:45:13.216Z,99515.06
2023-02-17T10:47:42.275Z,99521.25
2023-02-17T10:50:21.667Z,99527.66
2023-02-17T10:52:51.785Z,99525.34
2023-02-17T10:55:39.934Z,99525.13
2023-02-17T10:58:25.343Z,99518.53
2023-02-17T11:00:57.819Z,99516.25
2023-02-17T11:03:29.816Z,99522.63
2023-02-17T11:06:17.140Z,99514.75
2023-02-17T11:08:53.615Z,99523.72
2023-02-17T11:11:23.380Z,99524.25
2023-02-17T11:14:10.109Z,99527.03
2023-02-17T11:16:46.447Z,99535.47
2023-02-17T11:19:26.666Z,99527.56
2023-02-17T11:21:57.262Z,99535.22
2023-02-17T11:24:26.342Z,99536.47
2023-02-17T11:27:01.819Z,99545.16
2023-02-17T11:29:30.994Z,99556.38
2023-02-17T11:32:13.283Z,99566.84
2023-02-17T11:34:43.922Z,99560.47
2023-02-17T11:37:15.284Z,99566.34
2023-02-17T11:39:46.435Z,99550.25
2023-02-17T11:42:28.425Z,99566.81
2023-02-17T11:45:01.787Z,99565.78
2023-02-17T11:47:59.051Z,99571.16
2023-02-17T11:50:51.093Z,99580.84
2023-02-17T11:53:49.833Z,99585.41
2023-02-17T11:56:24.607Z,99588.72
2023-02-17T11:59:16.870Z,99596.13
2023-02-17T12:02:09.187Z,99600.16
2023-02-17T12:05:20.852Z,99603.69
2023-02-17T12:08:23.164Z,99603.94
2023-02-17T12:11:10.359Z,99616.66
2023-02-17T12:14:01.711Z,99618.19
2023-02-17T12:16:44.942Z,99623.28
2023-02-17T12:19:51.503Z,99635.50
2023-02-17T12:22:25.303Z,99632.94
2023-02-17T12:25:22.459Z,99644.66
2023-02-17T12:28:21.820Z,99648.44
2023-02-17T12:30:59.287Z,99653.00
2023-02-17T12:33:48.814Z,99653.50
2023-02-17T12:36:19.935Z,99658.34
2023-02-17T12:38:56.395Z,99658.34
2023-02-17T12:41:48.379Z,99654.50
2023-02-17T12:44:24.754Z,99662.16
2023-02-17T12:47:02.558Z,99667.00
2023-02-17T12:49:44.414Z,99659.59
2023-02-17T12:52:24.393Z,99669.75
2023-02-17T12:54:52.686Z,99674.34
2023-02-17T12:58:04.822Z,99676.63
2023-02-17T13:01:02.714Z,99672.00
2023-02-17T13:03:34.315Z,99687.00
2023-02-17T13:06:06.595Z,99678.31
2023-02-17T13:08:56.594Z,99694.88
2023-02-17T13:11:34.921Z,99699.44
2023-02-17T13:14:41.408Z,99703.19
2023-02-17T13:17:26.894Z,99705.75
2023-02-17T13:20:13.097Z,99701.91
2023-02-17T13:22:43.807Z,99707.25
2023-02-17T13:25:37.613Z,99713.84
2023-02-17T13:28:20.844Z,99712.03
2023-02-17T13:30:53.111Z,99717.38
2023-02-17T13:33:24.594Z,99719.88
2023-02-17T13:35:53.323Z,99725.19
2023-02-17T13:38:33.346Z,99725.69
2023-02-17T13:41:05.401Z,99729.00
2023-02-17T13:43:42.642Z,99735.09
2023-02-17T13:46:25.347Z,99731.53
2023-02-17T13:49:02.051Z,99734.06
2023-02-17T13:51:33.064Z,99737.34
2023-02-17T13:54:09.690Z,99730.22
2023-02-17T13:56:38.101Z,99738.63
2023-02-17T13:59:21.038Z,99742.19
2023-02-17T14:01:50.444Z,99733.78
2023-02-17T14:04:48.259Z,99745.75
2023-02-17T14:07:17.652Z,99751.06
2023-02-17T14:09:55.098Z,99752.84
2023-02-17T14:12:25.183Z,99753.84
2023-02-17T14:14:53.656Z,99749.22
2023-02-17T14:17:33.445Z,99748.97
2023-02-17T14:20:01.885Z,99754.28
2023-02-17T14:22:32.740Z,99742.78
2023-02-17T14:25:08.626Z,99733.63
2023-02-17T14:27:48.163Z,99738.75
2023-02-17T14:30:32.621Z,99736.72
2023-02-17T14:33:06.197Z,99745.13
2023-02-17T14:35:35.608Z,99740.78
2023-02-17T14:38:20.905Z,99740.00
2023-02-17T14:40:49.793Z,99732.09
2023-02-17T14:43:18.391Z,99741.75
2023-02-17T14:45:46.833Z,99744.53
2023-02-17T14:48:15.243Z,99750.16
2023-02-17T14:50:45.183Z,99745.31
2023-02-17T14:53:22.388Z,99744.06
2023-02-17T14:56:13.794Z,99744.06
2023-02-17T14:58:42.221Z,99744.81
2023-02-17T15:01:14.077Z,99750.91
2023-02-17T15:03:42.666Z,99748.59
2023-02-17T15:06:31.491Z,99753.44
2023-02-17T15:09:02.472Z,99754.22
2023-02-17T15:11:37.917Z,99754.69
2023-02-17T15:14:06.884Z,99758.75
2023-02-17T15:16:35.320Z,99748.06
2023-02-17T15:19:03.674Z,99751.09
2023-02-17T15:21:34.755Z,99764.31
2023-02-17T15:24:04.545Z,99754.88
2023-02-17T15:26:32.854Z,99757.66
2023-02-17T15:29:01.385Z,99746.47
2023-02-17T15:31:33.472Z,99742.91
2023-02-17T15:34:02.510Z,99747.25
2023-02-17T15:36:30.874Z,99751.31
2023-02-17T15:38:59.225Z,99753.34
2023-02-17T15:41:31.180Z,99751.03
2023-02-17T15:44:00.055Z,99755.09
2023-02-17T15:46:33.779Z,99746.69
2023-02-17T15:49:02.200Z,99754.59
2023-02-17T15:51:30.532Z,99749.50
2023-02-17T15:53:59.044Z,99754.31
2023-02-17T15:56:31.244Z,99751.25
2023-02-17T15:59:10.186Z,99750.97
2023-02-17T16:01:38.564Z,99760.63
2023-02-17T16:04:11.121Z,99761.91
2023-02-17T16:06:40.081Z,99761.13
2023-02-17T16:09:09.139Z,99760.03
2023-02-17T16:11:48.552Z,99745.78
2023-02-17T16:14:33.287Z,99742.69
2023-02-17T16:17:02.254Z,99743.97
2023-02-17T16:19:30.904Z,99748.03
2023-02-17T16:21:59.253Z,99743.97
2023-02-17T16:24:27.541Z,99745.22
2023-02-17T16:26:57.273Z,99741.16
2023-02-17T16:29:25.773Z,99746.00
2023-02-17T16:31:54.174Z,99741.16
2023-02-17T16:34:24.732Z,99743.97
2023-02-17T16:37:00.421Z,99753.63
2023-02-17T16:39:28.801Z,99753.34
2023-02-17T16:41:57.131Z,99759.44
2023-02-17T16:44:25.573Z,99750.00
2023-02-17T16:46:56.596Z,99750.97
2023-02-17T16:49:34.982Z,99751.75
2023-02-17T16:52:09.059Z,99752.72
2023-02-17T16:54:37.477Z,99748.41
2023-02-17T16:57:05.807Z,99750.72
2023-02-17T16:59:34.084Z,99754.00
2023-02-17T17:02:02.672Z,99759.59
2023-02-17T17:04:30.958Z,99748.41
2023-02-17T17:06:59.262Z,99760.34
2023-02-17T17:09:27.593Z,99751.19
2023-02-17T17:11:55.949Z,99749.16
2023-02-17T17:14:24.516Z,99747.91
2023-02-17T17:16:57.007Z,99751.47
2023-02-17T17:19:25.770Z,99753.00
2023-02-17T17:21:54.264Z,99751.75
2023-02-17T17:24:22.956Z,99745.38
2023-02-17T17:26:52.492Z,99751.75
2023-02-17T17:29:21.611Z,99747.69
2023-02-17T17:31:50.512Z,99753.28
2023-02-17T17:34:18.952Z,99754.06
2023-02-17T17:36:48.940Z,99746.94
2023-02-17T17:39:20.286Z,99740.56
2023-02-17T17:41:49.272Z,99750.50
2023-02-17T17:44:18.988Z,99733.44
2023-02-17T17:46:47.382Z,99741.06
2023-02-17T17:49:18.866Z,99741.56
2023-02-17T17:51:47.694Z,99734.41
2023-02-17T17:54:16.131Z,99733.66
2023-02-17T17:56:45.000Z,99721.44
2023-02-17T17:59:15.048Z,99719.13
2023-02-17T18:01:45.634Z,99711.22
2023-02-17T18:04:14.850Z,99710.16
2023-02-17T18:06:50.068Z,99711.91
2023-02-17T18:09:31.981Z,99710.88
2023-02-17T18:12:03.997Z,99709.81
2023-02-17T18:14:33.011Z,99712.34
2023-02-17T18:17:01.797Z,99706.97
2023-02-17T18:19:31.798Z,99707.47
2023-02-17T18:22:00.164Z,99705.66
2023-02-17T18:24:29.199Z,99718.59
2023-02-17T18:26:57.666Z,99713.22
2023-02-17T18:29:26.294Z,99705.00
2023-02-17T18:31:54.852Z,99706.28
2023-02-17T18:34:23.309Z,99690.47
2023-02-17T18:36:51.621Z,99697.06
2023-02-17T18:39:19.904Z,99689.66
2023-02-17T18:41:48.229Z,99691.41
2023-02-17T18:44:16.601Z,99687.56
2023-02-17T18:46:46.994Z,99669.00
2023-02-17T18:49:15.387Z,99667.47
2023-02-17T18:51:43.756Z,99661.56
2023-02-17T18:54:13.776Z,99663.31
2023-02-17T18:56:42.094Z,99672.63
2023-02-17T18:59:10.395Z,99662.72
2023-02-17T19:01:41.765Z,99665.25
2023-02-17T19:04:14.016Z,99651.75
2023-02-17T19:06:42.600Z,99662.66
2023-02-17T19:09:11.107Z,99654.50
2023-02-17T19:11:39.444Z,99658.75
2023-02-17T19:14:07.805Z,99657.72
2023-02-17T19:16:36.252Z,99655.91
2023-02-17T19:19:05.161Z,99655.63
2023-02-17T19:21:36.173Z,99660.16
2023-02-17T19:24:04.914Z,99668.25
2023-02-17T19:26:33.251Z,99673.53
2023-02-17T19:29:01.513Z,99669.19
2023-02-17T19:31:30.009Z,99672.47
2023-02-17T19:33:58.430Z,99671.44
2023-02-17T19:36:26.814Z,99663.06
2023-02-17T19:38:57.848Z,99661.53
2023-02-17T19:41:26.633Z,99655.66
2023-02-17T19:43:54.959Z,99658.44
2023-02-17T19:46:25.310Z,99664.50
2023-02-17T19:48:53.708Z,99659.41
2023-02-17T19:51:22.276Z,99651.03
2023-02-17T19:53:50.616Z,99649.50
2023-02-17T19:56:22.419Z,99654.31
2023-02-17T19:58:50.976Z,99659.41
2023-02-17T20:01:28.647Z,99662.69
2023-02-17T20:03:58.648Z,99646.72
2023-02-17T20:06:31.124Z,99642.38
2023-02-17T20:09:02.843Z,99646.16
2023-02-17T20:11:32.793Z,99644.63
2023-02-17T20:14:02.535Z,99642.31
2023-02-17T20:16:31.977Z,99633.19
2023-02-17T20:19:02.836Z,99638.75
2023-02-17T20:21:33.564Z,99640.78
2023-02-17T20:24:02.361Z,99639.25
2023-02-17T20:26:33.625Z,99630.88
2023-02-17T20:29:03.155Z,99625.00
2023-02-17T20:31:32.002Z,99627.03
2023-02-17T20:34:00.574Z,99626.75
2023-02-17T20:36:28.971Z,99624.41
2023-02-17T20:38:57.249Z,99626.44
2023-02-17T20:41:26.233Z,99637.31
2023-02-17T20:43:54.559Z,99627.41
2023-02-17T20:46:28.677Z,99627.63
2023-02-17T20:48:57.702Z,99623.78
2023-02-17T20:51:26.367Z,99627.53
2023-02-17T20:53:54.648Z,99620.13
2023-02-17T20:56:25.014Z,99622.34
2023-02-17T20:58:54.392Z,99631.97
2023-02-17T21:01:22.733Z,99622.56
2023-02-17T21:03:51.043Z,99618.22
2023-02-17T21:06:23.553Z,99615.91
2023-02-17T21:08:54.790Z,99617.91
2023-02-17T21:11:23.571Z,99610.78
2023-02-17T21:13:51.923Z,99601.19
2023-02-17T21:16:23.994Z,99595.31
2023-02-17T21:18:52.371Z,99591.00
2023-02-17T21:21:21.373Z,99579.84
2023-02-17T21:23:49.855Z,99580.31
2023-02-17T21:26:18.820Z,99572.91
2023-02-17T21:28:47.856Z,99585.63
2023-02-17T21:31:17.651Z,99590.16
2023-02-17T21:33:46.251Z,99594.66
2023-02-17T21:36:17.362Z,99608.34
2023-02-17T21:38:45.944Z,99607.28
2023-02-17T21:41:20.938Z,99592.56
2023-02-17T21:44:07.999Z,99597.88
2023-02-17T21:46:38.252Z,99601.13
2023-02-17T21:49:06.537Z,99605.19
2023-02-17T21:51:34.843Z,99599.03
2023-02-17T21:54:03.159Z,99599.97
2023-02-17T21:56:31.471Z,99598.91
2023-02-17T21:59:00.054Z,99593.06
2023-02-17T22:01:29.174Z,99599.88
2023-02-17T22:03:58.742Z,99594.78
2023-02-17T22:06:30.162Z,99595.28
2023-02-17T22:08:59.933Z,99602.59
2023-02-17T22:11:36.013Z,99609.41
2023-02-17T22:14:07.843Z,99602.31
2023-02-17T22:16:37.359Z,99596.44
2023-02-17T22:19:07.678Z,99605.78
2023-02-17T22:21:36.158Z,99608.75
2023-02-17T22:24:04.999Z,99630.00
2023-02-17T22:26:33.392Z,99629.41
2023-02-17T22:29:01.700Z,99625.56
2023-02-17T22:31:31.704Z,99620.47
2023-02-17T22:34:03.352Z,99628.81
2023-02-17T22:36:35.744Z,99637.66
2023-02-17T22:39:06.224Z,99639.69
2023-02-17T22:41:35.970Z,99627.00
2023-02-17T22:44:04.988Z,99635.06
2023-02-17T22:46:33.399Z,99644.69
2023-02-17T22:49:02.480Z,99650.41
2023-02-17T22:51:38.171Z,99654.94
2023-02-17T22:54:08.284Z,99655.91
2023-02-17T22:56:37.319Z,99650.03
2023-02-17T22:59:06.594Z,99646.97
2023-02-17T23:01:37.281Z,99661.06
2023-02-17T23:04:06.867Z,99658.44
2023-02-17T23:06:38.322Z,99664.22
2023-02-17T23:09:09.618Z,99667.66
2023-02-17T23:11:54.664Z,99679.75
2023-02-17T23:14:33.786Z,99683.22
2023-02-17T23:17:05.251Z,99682.16
2023-02-17T23:19:33.890Z,99676.72
2023-02-17T23:22:06.612Z,99675.19
2023-02-17T23:24:35.335Z,99682.00
2023-02-17T23:27:04.769Z,99687.28
2023-02-17T23:29:34.605Z,99691.00
2023-02-17T23:32:02.998Z,99691.50
2023-02-17T23:34:31.763Z,99699.06
2023-02-17T23:37:00.163Z,99705.41
2023-02-17T23:39:28.663Z,99720.59
2023-02-17T23:41:57.166Z,99729.88
2023-02-17T23:44:25.607Z,99738.72
2023-02-17T23:46:53.905Z,99751.09
2023-02-17T23:49:22.291Z,99756.66
2023-02-17T23:51:50.616Z,99758.69
2023-02-17T23:54:19.013Z,99764.53
2023-02-17T23:56:47.286Z,99766.84
2023-02-17T23:59:15.649Z,99762.66
